createdAt,value
2017-11-14T00:00:13.122Z,2.60
2017-11-14T00:02:39.570Z,2.60
2017-11-14T00:05:06.082Z,2.50
2017-11-14T00:07:33.358Z,2.40
2017-11-14T00:09:59.815Z,2.40
2017-11-14T00:12:27.387Z,2.40
2017-11-14T00:14:54.581Z,2.30
2017-11-14T00:17:21.985Z,2.30
2017-11-14T00:19:48.459Z,2.30
2017-11-14T00:22:14.913Z,2.30
2017-11-14T00:24:41.412Z,2.20
2017-11-14T00:27:07.855Z,2.20
2017-11-14T00:29:35.142Z,2.00
2017-11-14T00:32:02.316Z,1.90
2017-11-14T00:34:28.768Z,1.90
2017-11-14T00:36:56.657Z,1.80
2017-11-14T00:39:23.421Z,1.80
2017-11-14T00:41:49.872Z,1.70
2017-11-14T00:44:17.153Z,1.60
2017-11-14T00:46:44.332Z,1.60
2017-11-14T00:49:10.806Z,1.60
2017-11-14T00:51:37.338Z,1.50
2017-11-14T00:54:03.897Z,1.50
2017-11-14T00:56:31.171Z,1.40
2017-11-14T00:58:57.670Z,1.40
2017-11-14T01:01:24.189Z,1.40
2017-11-14T01:03:50.745Z,1.40
2017-11-14T01:06:17.218Z,1.40
2017-11-14T01:08:44.274Z,1.40
2017-11-14T01:11:10.833Z,1.40
2017-11-14T01:13:37.298Z,1.40
2017-11-14T01:16:03.740Z,1.50
2017-11-14T01:18:31.615Z,1.50
2017-11-14T01:20:58.832Z,1.60
2017-11-14T01:23:25.361Z,1.50
2017-11-14T01:25:51.918Z,1.60
2017-11-14T01:28:18.432Z,1.60
2017-11-14T01:30:44.950Z,1.60
2017-11-14T01:33:11.490Z,1.60
2017-11-14T01:35:38.050Z,1.60
2017-11-14T01:38:04.607Z,1.60
2017-11-14T01:40:32.324Z,1.50
2017-11-14T01:42:58.804Z,1.50
2017-11-14T01:45:25.319Z,1.40
2017-11-14T01:47:52.339Z,1.40
2017-11-14T01:50:18.796Z,1.30
2017-11-14T01:52:46.035Z,1.20
2017-11-14T01:55:12.503Z,1.20
2017-11-14T01:57:39.021Z,1.20
2017-11-14T02:00:05.531Z,1.20
2017-11-14T02:02:32.084Z,1.10
2017-11-14T02:04:58.592Z,1.10
2017-11-14T02:07:25.166Z,1.10
2017-11-14T02:09:52.024Z,1.20
2017-11-14T02:12:18.513Z,1.20
2017-11-14T02:14:45.008Z,1.30
2017-11-14T02:17:12.246Z,1.30
2017-11-14T02:19:38.861Z,1.30
2017-11-14T02:22:06.134Z,1.30
2017-11-14T02:24:33.412Z,1.30
2017-11-14T02:27:00.789Z,1.40
2017-11-14T02:29:27.345Z,1.40
2017-11-14T02:31:54.643Z,1.40
2017-11-14T02:34:21.191Z,1.40
2017-11-14T02:36:47.737Z,1.40
2017-11-14T02:39:14.314Z,1.40
2017-11-14T02:41:40.961Z,1.40
2017-11-14T02:44:07.532Z,1.50
2017-11-14T02:46:34.042Z,1.50
2017-11-14T02:49:01.515Z,1.60
2017-11-14T02:51:28.633Z,1.60
2017-11-14T02:53:55.282Z,1.70
2017-11-14T02:56:21.799Z,1.80
2017-11-14T02:58:48.405Z,1.80
2017-11-14T03:01:15.059Z,1.90
2017-11-14T03:03:42.337Z,2.10
2017-11-14T03:06:08.813Z,2.10
2017-11-14T03:08:36.395Z,2.20
2017-11-14T03:11:03.037Z,2.30
2017-11-14T03:13:30.410Z,2.40
2017-11-14T03:15:56.969Z,2.40
2017-11-14T03:18:24.092Z,2.40
2017-11-14T03:20:50.698Z,2.50
2017-11-14T03:23:17.191Z,2.50
2017-11-14T03:25:43.664Z,2.60
2017-11-14T03:28:10.161Z,2.60
2017-11-14T03:30:37.442Z,2.80
2017-11-14T03:33:03.979Z,2.70
2017-11-14T03:35:31.259Z,2.80
2017-11-14T03:37:58.460Z,2.90
2017-11-14T03:40:25.025Z,2.90
2017-11-14T03:42:51.541Z,2.90
2017-11-14T03:45:18.919Z,2.90
2017-11-14T03:47:46.162Z,2.90
2017-11-14T03:50:12.719Z,2.90
2017-11-14T03:52:39.333Z,3.00
2017-11-14T03:55:06.526Z,3.00
2017-11-14T03:57:33.008Z,3.00
2017-11-14T03:59:59.468Z,3.00
2017-11-14T04:02:25.944Z,3.10
2017-11-14T04:04:53.908Z,3.10
2017-11-14T04:07:20.443Z,3.10
2017-11-14T04:09:46.967Z,3.10
2017-11-14T04:12:14.213Z,3.10
2017-11-14T04:14:40.815Z,3.20
2017-11-14T04:17:07.394Z,3.20
2017-11-14T04:19:33.929Z,3.10
2017-11-14T04:22:00.366Z,3.20
2017-11-14T04:24:26.812Z,3.20
2017-11-14T04:26:54.673Z,3.30
2017-11-14T04:29:21.169Z,3.20
2017-11-14T04:31:48.891Z,3.30
2017-11-14T04:34:15.339Z,3.30
2017-11-14T04:36:41.884Z,3.30
2017-11-14T04:39:08.387Z,3.20
2017-11-14T04:41:34.900Z,3.20
2017-11-14T04:44:01.373Z,3.20
2017-11-14T04:46:27.822Z,3.10
2017-11-14T04:48:54.475Z,3.10
2017-11-14T04:51:20.940Z,3.00
2017-11-14T04:53:47.487Z,3.00
2017-11-14T04:56:14.044Z,3.00
2017-11-14T04:58:41.254Z,2.90
2017-11-14T05:01:07.876Z,2.90
2017-11-14T05:03:34.367Z,2.90
2017-11-14T05:06:00.892Z,2.90
2017-11-14T05:08:27.450Z,2.90
2017-11-14T05:10:54.010Z,3.00
2017-11-14T05:13:20.571Z,3.00
2017-11-14T05:15:47.046Z,3.10
2017-11-14T05:18:13.583Z,3.00
2017-11-14T05:20:40.140Z,3.00
2017-11-14T05:23:06.615Z,3.10
2017-11-14T05:25:33.127Z,3.10
2017-11-14T05:27:59.612Z,3.00
2017-11-14T05:30:26.731Z,3.10
2017-11-14T05:32:53.363Z,3.10
2017-11-14T05:35:20.003Z,3.10
2017-11-14T05:37:46.560Z,3.00
2017-11-14T05:40:13.018Z,3.10
2017-11-14T05:42:39.473Z,3.10
2017-11-14T05:45:05.945Z,3.10
2017-11-14T05:47:32.486Z,3.00
2017-11-14T05:49:59.648Z,3.10
2017-11-14T05:52:26.836Z,3.10
2017-11-14T05:54:53.520Z,3.10
2017-11-14T05:57:20.099Z,3.10
2017-11-14T05:59:46.610Z,3.20
2017-11-14T06:02:13.168Z,3.20
2017-11-14T06:04:39.724Z,3.20
2017-11-14T06:07:06.181Z,3.20
2017-11-14T06:09:33.459Z,3.20
2017-11-14T06:12:00.246Z,3.30
2017-11-14T06:14:27.445Z,3.30
2017-11-14T06:16:53.897Z,3.30
2017-11-14T06:19:20.405Z,3.30
2017-11-14T06:21:47.597Z,3.30
2017-11-14T06:24:15.159Z,3.30
2017-11-14T06:26:42.432Z,3.40
2017-11-14T06:29:09.815Z,3.50
2017-11-14T06:31:36.368Z,3.40
2017-11-14T06:34:02.926Z,3.40
2017-11-14T06:36:29.484Z,3.50
2017-11-14T06:38:56.678Z,3.50
2017-11-14T06:41:23.198Z,3.50
2017-11-14T06:43:50.380Z,3.50
2017-11-14T06:46:17.557Z,3.60
2017-11-14T06:48:44.966Z,3.60
2017-11-14T06:51:11.440Z,3.60
2017-11-14T06:53:38.629Z,3.70
2017-11-14T06:56:05.124Z,3.60
2017-11-14T06:58:31.682Z,3.70
2017-11-14T07:00:58.233Z,3.70
2017-11-14T07:03:24.687Z,3.70
2017-11-14T07:05:51.153Z,3.70
2017-11-14T07:08:17.712Z,3.70
2017-11-14T07:10:44.161Z,3.70
2017-11-14T07:13:11.351Z,3.80
2017-11-14T07:15:37.864Z,3.80
2017-11-14T07:18:04.357Z,3.80
2017-11-14T07:20:30.812Z,3.80
2017-11-14T07:22:57.280Z,3.90
2017-11-14T07:25:23.825Z,4.00
2017-11-14T07:27:50.247Z,4.00
2017-11-14T07:30:16.736Z,4.00
2017-11-14T07:32:44.012Z,4.20
2017-11-14T07:35:10.436Z,4.10
2017-11-14T07:37:37.130Z,4.20
2017-11-14T07:40:03.687Z,4.20
2017-11-14T07:42:30.244Z,4.30
2017-11-14T07:44:57.520Z,4.30
2017-11-14T07:47:24.079Z,4.30
2017-11-14T07:49:50.598Z,4.40
2017-11-14T07:52:17.092Z,4.40
2017-11-14T07:54:43.533Z,4.50
2017-11-14T07:57:10.745Z,4.60
2017-11-14T07:59:37.278Z,4.60
2017-11-14T08:02:03.837Z,4.70
2017-11-14T08:04:30.398Z,4.70
2017-11-14T08:06:56.914Z,4.90
2017-11-14T08:09:23.394Z,4.90
2017-11-14T08:11:50.564Z,5.00
2017-11-14T08:14:18.335Z,5.00
2017-11-14T08:16:45.553Z,5.00
2017-11-14T08:19:12.103Z,5.00
2017-11-14T08:21:38.530Z,5.00
2017-11-14T08:24:05.112Z,5.00
2017-11-14T08:26:32.306Z,5.00
2017-11-14T08:28:58.843Z,5.00
2017-11-14T08:31:26.117Z,5.10
2017-11-14T08:33:53.261Z,5.10
2017-11-14T08:36:20.260Z,5.10
2017-11-14T08:38:46.762Z,5.00
2017-11-14T08:41:13.220Z,5.00
2017-11-14T08:43:39.720Z,4.90
2017-11-14T08:46:07.029Z,4.80
2017-11-14T08:48:33.479Z,4.80
2017-11-14T08:50:59.972Z,4.80
2017-11-14T08:53:27.160Z,4.80
2017-11-14T08:55:53.690Z,4.80
2017-11-14T08:58:20.209Z,4.80
2017-11-14T09:00:46.761Z,4.90
2017-11-14T09:03:14.037Z,4.90
2017-11-14T09:05:40.595Z,4.90
2017-11-14T09:08:07.092Z,4.90
2017-11-14T09:10:33.656Z,5.00
2017-11-14T09:13:00.272Z,5.00
2017-11-14T09:15:26.908Z,5.00
2017-11-14T09:17:53.461Z,5.00
2017-11-14T09:20:20.866Z,4.90
2017-11-14T09:22:48.198Z,4.90
2017-11-14T09:25:14.901Z,4.90
2017-11-14T09:27:42.174Z,5.00
2017-11-14T09:30:09.553Z,5.10
2017-11-14T09:32:36.107Z,5.10
2017-11-14T09:35:03.487Z,5.20
2017-11-14T09:37:30.866Z,5.20
2017-11-14T09:39:57.393Z,5.20
2017-11-14T09:42:24.083Z,5.30
2017-11-14T09:44:51.392Z,5.60
2017-11-14T09:47:18.024Z,5.60
2017-11-14T09:49:44.687Z,5.80
2017-11-14T09:52:11.960Z,6.00
2017-11-14T09:54:38.491Z,6.30
2017-11-14T09:57:05.765Z,6.80
2017-11-14T09:59:32.326Z,6.80
2017-11-14T10:01:58.874Z,6.90
2017-11-14T10:04:25.426Z,7.10
2017-11-14T10:06:52.010Z,7.20
2017-11-14T10:09:18.826Z,7.30
2017-11-14T10:11:45.814Z,7.30
2017-11-14T10:14:13.420Z,7.20
2017-11-14T10:16:40.886Z,7.20
2017-11-14T10:19:07.703Z,7.20
2017-11-14T10:21:34.339Z,7.40
2017-11-14T10:24:00.940Z,7.60
2017-11-14T10:26:29.031Z,7.80
2017-11-14T10:28:55.891Z,7.90
2017-11-14T10:31:22.764Z,7.90
2017-11-14T10:33:49.529Z,7.90
2017-11-14T10:36:16.408Z,7.80
2017-11-14T10:38:43.972Z,7.60
2017-11-14T10:41:11.309Z,7.50
2017-11-14T10:43:38.843Z,7.50
2017-11-14T10:46:05.693Z,7.50
2017-11-14T10:48:33.367Z,7.30
2017-11-14T10:51:00.866Z,7.20
2017-11-14T10:53:27.824Z,7.10
2017-11-14T10:55:54.442Z,7.10
2017-11-14T10:58:22.013Z,7.00
2017-11-14T11:00:48.987Z,6.90
2017-11-14T11:03:15.523Z,6.80
2017-11-14T11:05:43.078Z,6.70
2017-11-14T11:08:11.479Z,6.50
2017-11-14T11:10:38.337Z,6.50
2017-11-14T11:13:05.784Z,6.30
2017-11-14T11:15:32.333Z,6.30
2017-11-14T11:17:59.551Z,6.30
2017-11-14T11:20:26.155Z,6.30
2017-11-14T11:22:52.965Z,6.30
2017-11-14T11:25:19.905Z,6.20
2017-11-14T11:27:47.536Z,6.10
2017-11-14T11:30:15.206Z,5.90
2017-11-14T11:32:43.455Z,5.90
2017-11-14T11:35:09.979Z,5.90
2017-11-14T11:37:37.687Z,6.00
2017-11-14T11:40:04.491Z,6.00
2017-11-14T11:42:31.374Z,6.00
2017-11-14T11:44:58.712Z,6.20
2017-11-14T11:47:28.472Z,6.20
2017-11-14T11:49:55.960Z,6.30
2017-11-14T11:52:25.072Z,6.40
2017-11-14T11:54:52.745Z,6.30
2017-11-14T11:57:20.132Z,6.30
2017-11-14T11:59:49.230Z,6.30
2017-11-14T12:02:17.019Z,6.20
2017-11-14T12:04:43.900Z,6.20
2017-11-14T12:07:11.672Z,6.10
2017-11-14T12:09:39.255Z,6.10
2017-11-14T12:12:06.122Z,6.10
2017-11-14T12:14:33.537Z,6.20
2017-11-14T12:17:01.316Z,6.20
2017-11-14T12:19:28.273Z,6.20
2017-11-14T12:21:55.091Z,6.20
2017-11-14T12:24:21.983Z,6.40
2017-11-14T12:26:48.787Z,6.40
2017-11-14T12:29:15.635Z,6.50
2017-11-14T12:31:43.400Z,6.50
2017-11-14T12:34:10.025Z,6.60
2017-11-14T12:36:40.520Z,6.70
2017-11-14T12:39:07.272Z,6.90
2017-11-14T12:41:34.841Z,6.90
2017-11-14T12:44:01.683Z,6.90
2017-11-14T12:46:29.286Z,6.90
2017-11-14T12:48:56.266Z,6.90
2017-11-14T12:51:23.144Z,6.90
2017-11-14T12:53:50.912Z,6.90
2017-11-14T12:56:17.684Z,6.90
2017-11-14T12:58:45.357Z,6.60
2017-11-14T13:01:11.976Z,6.60
2017-11-14T13:03:39.004Z,6.60
2017-11-14T13:06:06.659Z,6.50
2017-11-14T13:08:33.539Z,6.50
2017-11-14T13:11:01.175Z,6.50
2017-11-14T13:13:28.083Z,6.40
2017-11-14T13:15:54.945Z,6.40
2017-11-14T13:18:22.738Z,6.30
2017-11-14T13:20:49.352Z,6.30
2017-11-14T13:23:16.810Z,6.20
2017-11-14T13:25:43.638Z,6.20
2017-11-14T13:28:11.288Z,6.20
2017-11-14T13:30:39.212Z,6.20
2017-11-14T13:35:19.469Z,6.10
2017-11-14T13:37:46.056Z,6.10
2017-11-14T13:40:12.572Z,6.20
2017-11-14T13:42:39.177Z,6.20
2017-11-14T13:45:05.732Z,6.10
2017-11-14T13:47:32.185Z,6.10
2017-11-14T13:49:58.747Z,6.10
2017-11-14T13:52:26.021Z,6.00
2017-11-14T13:54:52.453Z,6.00
2017-11-14T13:57:19.687Z,6.00
2017-11-14T13:59:46.209Z,6.00
2017-11-14T14:02:13.476Z,6.00
2017-11-14T14:04:40.693Z,5.90
2017-11-14T14:07:07.193Z,5.90
2017-11-14T14:09:34.449Z,5.90
2017-11-14T14:12:01.016Z,5.90
2017-11-14T14:14:27.606Z,5.90
2017-11-14T14:16:54.367Z,5.90
2017-11-14T14:19:20.925Z,5.90
2017-11-14T14:21:47.586Z,5.90
2017-11-14T14:24:14.144Z,5.80
2017-11-14T14:26:40.702Z,5.80
2017-11-14T14:29:08.510Z,5.50
2017-11-14T14:31:35.016Z,5.50
2017-11-14T14:34:02.270Z,5.30
2017-11-14T14:36:29.297Z,5.30
2017-11-14T14:38:55.848Z,5.20
2017-11-14T14:41:22.407Z,5.10
2017-11-14T14:43:49.477Z,5.00
2017-11-14T14:46:16.034Z,4.90
2017-11-14T14:48:44.435Z,4.70
2017-11-14T14:51:11.297Z,4.70
2017-11-14T14:53:37.856Z,4.70
2017-11-14T14:56:04.316Z,4.60
2017-11-14T14:58:30.873Z,4.60
2017-11-14T15:00:57.337Z,4.60
2017-11-14T15:03:23.795Z,4.50
2017-11-14T15:05:50.343Z,4.50
2017-11-14T15:08:16.800Z,4.50
2017-11-14T15:10:43.254Z,4.50
2017-11-14T15:13:09.813Z,4.40
2017-11-14T15:15:36.372Z,4.40
2017-11-14T15:18:02.868Z,4.40
2017-11-14T15:20:29.348Z,4.40
2017-11-14T15:22:56.565Z,4.30
2017-11-14T15:25:23.168Z,4.30
2017-11-14T15:27:49.649Z,4.30
2017-11-14T15:30:16.234Z,4.30
2017-11-14T15:32:42.995Z,4.30
2017-11-14T15:35:10.216Z,4.20
2017-11-14T15:37:36.931Z,4.20
2017-11-14T15:40:03.496Z,4.20
2017-11-14T15:42:30.047Z,4.20
2017-11-14T15:44:56.605Z,4.20
2017-11-14T15:47:23.882Z,4.10
2017-11-14T15:49:50.440Z,4.00
2017-11-14T15:52:17.712Z,3.90
2017-11-14T15:54:44.986Z,3.80
2017-11-14T15:57:12.261Z,3.80
2017-11-14T15:59:38.761Z,3.80
2017-11-14T16:02:06.614Z,3.70
2017-11-14T16:04:33.270Z,3.70
2017-11-14T16:06:59.828Z,3.70
2017-11-14T16:09:26.384Z,3.60
2017-11-14T16:11:52.942Z,3.60
2017-11-14T16:14:20.232Z,3.50
2017-11-14T16:16:47.592Z,3.50
2017-11-14T16:19:14.092Z,3.50
2017-11-14T16:21:40.661Z,3.40
2017-11-14T16:24:07.148Z,3.40
2017-11-14T16:26:34.355Z,3.30
2017-11-14T16:29:00.875Z,3.30
2017-11-14T16:31:28.280Z,3.20
2017-11-14T16:33:54.820Z,3.20
2017-11-14T16:36:21.339Z,3.20
2017-11-14T16:38:47.851Z,3.10
2017-11-14T16:41:14.711Z,3.10
2017-11-14T16:43:42.089Z,3.10
2017-11-14T16:46:08.646Z,3.10
2017-11-14T16:48:35.211Z,3.10
2017-11-14T16:51:01.973Z,3.10
2017-11-14T16:53:28.638Z,3.10
2017-11-14T16:55:55.173Z,3.20
2017-11-14T16:58:22.470Z,3.20
2017-11-14T17:00:49.123Z,3.20
2017-11-14T17:03:15.665Z,3.20
2017-11-14T17:05:42.954Z,3.10
2017-11-14T17:08:09.512Z,3.10
2017-11-14T17:10:36.024Z,3.10
2017-11-14T17:13:02.646Z,3.10
2017-11-14T17:15:29.150Z,3.00
2017-11-14T17:17:55.748Z,2.90
2017-11-14T17:20:22.210Z,2.90
2017-11-14T17:22:48.864Z,2.80
2017-11-14T17:25:15.421Z,2.70
2017-11-14T17:27:42.696Z,2.70
2017-11-14T17:30:09.179Z,2.70
2017-11-14T17:32:35.814Z,2.60
2017-11-14T17:35:02.372Z,2.60
2017-11-14T17:37:28.936Z,2.60
2017-11-14T17:39:55.492Z,2.50
2017-11-14T17:42:22.149Z,2.50
2017-11-14T17:44:49.386Z,2.40
2017-11-14T17:47:15.983Z,2.50
2017-11-14T17:49:42.748Z,2.40
2017-11-14T17:52:09.282Z,2.40
2017-11-14T17:54:35.767Z,2.40
2017-11-14T17:57:02.302Z,2.40
2017-11-14T17:59:29.900Z,2.40
2017-11-14T18:01:56.457Z,2.40
2017-11-14T18:04:23.222Z,2.40
2017-11-14T18:06:50.188Z,2.50
2017-11-14T18:09:17.463Z,2.60
2017-11-14T18:11:44.643Z,2.70
2017-11-14T18:14:11.192Z,2.70
2017-11-14T18:16:38.137Z,2.80
2017-11-14T18:19:06.765Z,2.80
2017-11-14T18:21:35.165Z,2.90
2017-11-14T18:24:02.849Z,2.90
2017-11-14T18:26:30.020Z,2.90
2017-11-14T18:28:58.270Z,2.90
2017-11-14T18:31:25.693Z,3.00
2017-11-14T18:33:53.192Z,3.00
2017-11-14T18:36:20.039Z,3.10
2017-11-14T18:38:46.699Z,3.10
2017-11-14T18:41:14.584Z,3.10
2017-11-14T18:43:43.031Z,3.20
2017-11-14T18:46:10.566Z,3.20
2017-11-14T18:48:37.590Z,3.20
2017-11-14T18:51:04.196Z,3.20
2017-11-14T18:53:30.854Z,3.30
2017-11-14T18:58:05.530Z,3.30
2017-11-14T19:00:32.228Z,3.30
2017-11-14T19:02:59.805Z,3.40
2017-11-14T19:05:26.375Z,3.40
2017-11-14T19:07:54.711Z,3.50
2017-11-14T19:10:23.825Z,3.50
2017-11-14T19:12:52.276Z,3.50
2017-11-14T19:15:20.466Z,3.50
2017-11-14T19:17:47.473Z,3.50
2017-11-14T19:20:17.480Z,3.60
2017-11-14T19:22:45.568Z,3.60
2017-11-14T19:25:12.238Z,3.60
2017-11-14T19:27:39.970Z,3.60
2017-11-14T19:30:07.392Z,3.60
2017-11-14T19:32:34.873Z,3.60
2017-11-14T19:35:03.392Z,3.60
2017-11-14T19:37:30.752Z,3.70
2017-11-14T19:39:58.370Z,3.70
2017-11-14T19:42:26.976Z,3.70
2017-11-14T19:44:55.213Z,3.70
2017-11-14T19:47:22.916Z,3.70
2017-11-14T19:49:53.060Z,3.70
2017-11-14T19:52:22.272Z,3.70
2017-11-14T19:54:52.153Z,3.70
2017-11-14T19:57:21.278Z,3.80
2017-11-14T19:59:51.022Z,3.80
2017-11-14T20:02:21.496Z,3.80
2017-11-14T20:04:50.276Z,3.90
2017-11-14T20:07:19.001Z,3.90
2017-11-14T20:09:49.700Z,3.90
2017-11-14T20:12:18.979Z,4.00
2017-11-14T20:14:48.175Z,4.00
2017-11-14T20:17:18.377Z,4.00
2017-11-14T20:19:49.626Z,4.00
2017-11-14T20:22:17.321Z,4.00
2017-11-14T20:24:45.378Z,4.00
2017-11-14T20:27:12.547Z,4.00
2017-11-14T20:29:40.890Z,4.00
2017-11-14T20:32:08.115Z,4.00
2017-11-14T20:34:34.890Z,4.00
2017-11-14T20:37:01.641Z,4.00
2017-11-14T20:39:29.734Z,4.10
2017-11-14T20:41:58.849Z,4.20
2017-11-14T20:44:25.923Z,4.10
2017-11-14T20:46:53.424Z,4.20
2017-11-14T20:49:20.671Z,4.30
2017-11-14T20:51:47.534Z,4.30
2017-11-14T20:54:15.627Z,4.30
2017-11-14T20:56:44.029Z,4.40
2017-11-14T20:59:11.508Z,4.40
2017-11-14T21:01:38.579Z,4.40
2017-11-14T21:04:06.157Z,4.40
2017-11-14T21:06:33.226Z,4.50
2017-11-14T21:09:00.501Z,4.60
2017-11-14T21:11:27.060Z,4.60
2017-11-14T21:13:53.616Z,4.60
2017-11-14T21:16:20.996Z,4.60
2017-11-14T21:18:48.052Z,4.60
2017-11-14T21:21:15.292Z,4.70
2017-11-14T21:23:41.838Z,4.70
2017-11-14T21:26:08.428Z,4.70
2017-11-14T21:28:35.116Z,4.70
2017-11-14T21:31:01.665Z,4.80
2017-11-14T21:33:29.504Z,4.80
2017-11-14T21:35:56.121Z,4.80
2017-11-14T21:38:22.686Z,4.80
2017-11-14T21:40:49.143Z,4.90
2017-11-14T21:43:16.409Z,4.90
2017-11-14T21:45:43.785Z,4.90
2017-11-14T21:48:11.588Z,5.00
2017-11-14T21:50:38.231Z,4.90
2017-11-14T21:53:05.219Z,4.90
2017-11-14T21:55:31.862Z,4.90
2017-11-14T21:57:58.418Z,4.90
2017-11-14T22:00:26.220Z,4.90
2017-11-14T22:02:52.686Z,4.90
2017-11-14T22:05:19.160Z,4.90
2017-11-14T22:07:45.582Z,4.80
2017-11-14T22:10:12.036Z,4.70
2017-11-14T22:12:38.485Z,4.70
2017-11-14T22:15:05.050Z,4.70
2017-11-14T22:17:31.605Z,4.70
2017-11-14T22:19:58.639Z,4.60
2017-11-14T22:22:25.708Z,4.60
2017-11-14T22:24:53.015Z,4.60
2017-11-14T22:27:19.574Z,4.60
2017-11-14T22:29:46.144Z,4.60
2017-11-14T22:32:12.692Z,4.60
2017-11-14T22:34:39.249Z,4.60
2017-11-14T22:37:05.766Z,4.60
2017-11-14T22:39:32.370Z,4.60
2017-11-14T22:41:58.927Z,4.60
2017-11-14T22:44:25.483Z,4.60
2017-11-14T22:46:51.912Z,4.60
2017-11-14T22:49:19.848Z,4.60
2017-11-14T22:51:47.149Z,4.60
2017-11-14T22:54:13.631Z,4.70
2017-11-14T22:56:40.935Z,4.70
2017-11-14T22:59:07.492Z,4.70
2017-11-14T23:01:35.843Z,4.70
2017-11-14T23:04:02.990Z,4.80
2017-11-14T23:06:29.523Z,4.80
2017-11-14T23:08:56.077Z,4.80
2017-11-14T23:11:23.354Z,4.80
2017-11-14T23:13:50.322Z,4.70
2017-11-14T23:16:16.769Z,4.70
2017-11-14T23:18:43.250Z,4.70
2017-11-14T23:21:09.742Z,4.70
2017-11-14T23:23:36.861Z,4.80
2017-11-14T23:26:03.286Z,4.80
2017-11-14T23:28:29.772Z,4.80
2017-11-14T23:30:56.846Z,4.80
2017-11-14T23:33:23.950Z,4.80
2017-11-14T23:35:53.495Z,4.80
2017-11-14T23:38:22.195Z,4.80
2017-11-14T23:40:51.383Z,4.80
2017-11-14T23:43:18.129Z,4.80
2017-11-14T23:45:45.942Z,4.80
2017-11-14T23:48:17.325Z,4.90
2017-11-14T23:50:44.185Z,4.90
2017-11-14T23:53:10.908Z,4.90
2017-11-14T23:55:40.381Z,4.90
2017-11-14T23:58:08.526Z,4.90
